createdAt,value
2018-08-13T00:01:10.648Z,99.40
2018-08-13T00:03:38.903Z,99.50
2018-08-13T00:06:07.048Z,99.70
2018-08-13T00:08:35.349Z,99.80
2018-08-13T00:11:03.659Z,99.90
2018-08-13T00:13:32.895Z,99.70
2018-08-13T00:16:01.158Z,99.90
2018-08-13T00:18:29.797Z,99.90
2018-08-13T00:20:57.892Z,99.90
2018-08-13T00:23:25.990Z,99.90
2018-08-13T00:25:55.032Z,99.90
2018-08-13T00:28:23.053Z,99.90
2018-08-13T00:30:51.156Z,99.90
2018-08-13T00:33:19.995Z,99.90
2018-08-13T00:35:48.215Z,99.90
2018-08-13T00:38:16.332Z,99.90
2018-08-13T00:40:44.547Z,99.90
2018-08-13T00:43:12.884Z,99.90
2018-08-13T00:45:41.084Z,99.90
2018-08-13T00:48:09.368Z,99.90
2018-08-13T00:50:39.091Z,99.90
2018-08-13T00:53:07.295Z,99.90
2018-08-13T00:55:35.516Z,99.90
2018-08-13T00:58:03.700Z,99.90
2018-08-13T01:00:32.209Z,99.90
2018-08-13T01:03:00.354Z,99.90
2018-08-13T01:05:29.404Z,99.90
2018-08-13T01:07:57.542Z,99.90
2018-08-13T01:10:25.585Z,99.90
2018-08-13T01:12:53.752Z,99.90
2018-08-13T01:15:22.237Z,99.90
2018-08-13T01:17:50.956Z,99.90
2018-08-13T01:20:20.808Z,99.90
2018-08-13T01:22:50.003Z,99.90
2018-08-13T01:25:20.364Z,99.90
2018-08-13T01:27:48.557Z,99.90
2018-08-13T01:30:17.948Z,99.90
2018-08-13T01:32:46.145Z,99.90
2018-08-13T01:35:15.966Z,99.90
2018-08-13T01:37:47.057Z,99.90
2018-08-13T01:40:17.094Z,99.90
2018-08-13T01:42:45.450Z,99.90
2018-08-13T01:45:13.497Z,99.90
2018-08-13T01:47:42.132Z,99.90
2018-08-13T01:50:12.570Z,99.90
2018-08-13T01:52:41.615Z,99.90
2018-08-13T01:55:12.413Z,99.90
2018-08-13T01:57:40.514Z,99.90
2018-08-13T02:00:17.157Z,99.90
2018-08-13T02:02:45.977Z,99.90
2018-08-13T02:05:14.634Z,99.90
2018-08-13T02:07:45.867Z,99.90
2018-08-13T02:10:14.664Z,99.90
2018-08-13T02:12:43.499Z,99.90
2018-08-13T02:15:11.593Z,99.90
2018-08-13T02:17:39.697Z,99.90
2018-08-13T02:20:08.611Z,99.90
2018-08-13T02:22:37.088Z,99.90
2018-08-13T02:25:05.726Z,99.90
2018-08-13T02:27:33.836Z,99.90
2018-08-13T02:30:02.004Z,99.90
2018-08-13T02:32:30.189Z,99.90
2018-08-13T02:34:58.309Z,99.90
2018-08-13T02:37:26.459Z,99.90
2018-08-13T02:39:54.541Z,99.90
2018-08-13T02:42:24.577Z,99.90
2018-08-13T02:44:52.661Z,99.90
2018-08-13T02:47:21.033Z,99.90
2018-08-13T02:49:50.448Z,99.90
2018-08-13T02:52:19.796Z,99.90
2018-08-13T02:54:48.250Z,99.90
2018-08-13T02:57:16.508Z,99.90
2018-08-13T02:59:44.805Z,99.90
2018-08-13T03:02:13.025Z,99.90
2018-08-13T03:04:41.321Z,99.90
2018-08-13T03:07:09.413Z,99.90
2018-08-13T03:09:37.440Z,99.90
2018-08-13T03:12:05.571Z,99.90
2018-08-13T03:14:33.728Z,99.90
2018-08-13T03:17:01.842Z,99.90
2018-08-13T03:19:29.967Z,99.90
2018-08-13T03:21:58.128Z,99.90
2018-08-13T03:24:26.293Z,99.90
2018-08-13T03:26:55.688Z,99.90
2018-08-13T03:29:23.850Z,99.90
2018-08-13T03:31:51.885Z,99.90
2018-08-13T03:34:20.125Z,99.90
2018-08-13T03:36:48.264Z,99.90
2018-08-13T03:39:16.261Z,99.90
2018-08-13T03:41:44.440Z,99.90
2018-08-13T03:44:12.716Z,99.90
2018-08-13T03:46:40.885Z,99.90
2018-08-13T03:49:10.540Z,99.90
2018-08-13T03:51:38.736Z,99.90
2018-08-13T03:54:07.056Z,99.90
2018-08-13T03:56:35.338Z,99.90
2018-08-13T03:59:03.661Z,99.90
2018-08-13T04:01:32.556Z,99.90
2018-08-13T04:04:02.292Z,99.90
2018-08-13T04:06:30.643Z,99.90
2018-08-13T04:08:59.563Z,99.90
2018-08-13T04:11:27.758Z,99.90
2018-08-13T04:13:55.936Z,99.90
2018-08-13T04:16:24.055Z,99.90
2018-08-13T04:18:53.090Z,99.90
2018-08-13T04:21:22.824Z,99.90
2018-08-13T04:23:50.992Z,99.90
2018-08-13T04:26:19.093Z,99.90
2018-08-13T04:28:48.442Z,99.90
2018-08-13T04:31:17.201Z,99.90
2018-08-13T04:33:45.296Z,99.90
2018-08-13T04:36:14.115Z,99.90
2018-08-13T04:38:44.411Z,99.90
2018-08-13T04:41:12.507Z,99.90
2018-08-13T04:43:40.607Z,99.90
2018-08-13T04:46:09.304Z,99.90
2018-08-13T04:48:37.513Z,99.90
2018-08-13T04:51:05.951Z,99.90
2018-08-13T04:53:34.162Z,99.90
2018-08-13T04:56:02.321Z,99.90
2018-08-13T04:58:30.384Z,99.90
2018-08-13T05:00:58.513Z,99.90
2018-08-13T05:03:26.782Z,99.90
2018-08-13T05:05:54.999Z,99.90
2018-08-13T05:08:23.166Z,99.90
2018-08-13T05:10:51.306Z,99.90
2018-08-13T05:13:19.392Z,99.90
2018-08-13T05:15:47.647Z,99.90
2018-08-13T05:18:16.303Z,99.90
2018-08-13T05:20:45.323Z,99.90
2018-08-13T05:23:13.340Z,99.90
2018-08-13T05:25:42.731Z,99.90
2018-08-13T05:28:11.911Z,99.90
2018-08-13T05:30:40.045Z,99.90
2018-08-13T05:33:08.822Z,99.90
2018-08-13T05:35:37.108Z,99.90
2018-08-13T05:38:05.234Z,99.90
2018-08-13T05:40:33.296Z,99.90
2018-08-13T05:43:01.416Z,99.90
2018-08-13T05:45:29.744Z,99.90
2018-08-13T05:47:58.656Z,99.90
2018-08-13T05:50:27.913Z,99.90
2018-08-13T05:52:58.374Z,99.90
2018-08-13T05:55:27.775Z,99.90
2018-08-13T05:57:56.908Z,99.90
2018-08-13T06:00:24.992Z,99.90
2018-08-13T06:02:53.983Z,99.90
2018-08-13T06:05:23.240Z,99.90
2018-08-13T06:07:53.258Z,99.90
2018-08-13T06:10:21.916Z,99.90
2018-08-13T06:12:50.688Z,99.90
2018-08-13T06:15:18.965Z,99.90
2018-08-13T06:17:47.175Z,99.90
2018-08-13T06:20:15.533Z,99.90
2018-08-13T06:22:45.344Z,99.90
2018-08-13T06:25:14.624Z,99.90
2018-08-13T06:27:43.762Z,99.90
2018-08-13T06:30:13.717Z,99.90
2018-08-13T06:32:44.743Z,99.90
2018-08-13T06:35:14.182Z,99.90
2018-08-13T06:37:43.543Z,99.90
2018-08-13T06:40:12.775Z,99.40
2018-08-13T06:42:41.076Z,99.30
2018-08-13T06:45:09.793Z,99.10
2018-08-13T06:47:38.820Z,99.00
2018-08-13T06:50:08.553Z,98.90
2018-08-13T06:52:36.552Z,98.80
2018-08-13T06:55:05.280Z,98.80
2018-08-13T06:57:33.490Z,99.00
2018-08-13T07:00:02.492Z,99.10
2018-08-13T07:02:32.076Z,99.20
2018-08-13T07:05:00.091Z,99.30
2018-08-13T07:07:28.260Z,99.20
2018-08-13T07:09:56.312Z,99.30
2018-08-13T07:12:26.097Z,99.30
2018-08-13T07:14:54.185Z,99.40
2018-08-13T07:17:23.743Z,99.50
2018-08-13T07:19:53.523Z,99.90
2018-08-13T07:22:22.165Z,99.90
2018-08-13T07:24:50.770Z,99.90
2018-08-13T07:27:20.010Z,99.90
2018-08-13T07:29:48.196Z,99.90
2018-08-13T07:32:18.365Z,99.90
2018-08-13T07:34:46.716Z,99.90
2018-08-13T07:37:15.369Z,99.90
2018-08-13T07:39:43.689Z,99.90
2018-08-13T07:42:11.932Z,99.90
2018-08-13T07:44:42.206Z,99.90
2018-08-13T07:47:11.484Z,99.90
2018-08-13T07:49:39.821Z,99.90
2018-08-13T07:52:09.956Z,99.90
2018-08-13T07:54:38.791Z,99.90
2018-08-13T07:57:10.230Z,99.90
2018-08-13T07:59:38.536Z,99.90
2018-08-13T08:02:06.912Z,99.90
2018-08-13T08:04:36.229Z,99.90
2018-08-13T08:07:05.879Z,99.90
2018-08-13T08:09:34.065Z,99.90
2018-08-13T08:12:03.784Z,99.90
2018-08-13T08:14:33.432Z,99.90
2018-08-13T08:17:01.553Z,99.90
2018-08-13T08:19:29.938Z,99.90
2018-08-13T08:21:58.851Z,99.90
2018-08-13T08:24:27.083Z,99.90
2018-08-13T08:29:57.759Z,99.90
2018-08-13T08:32:26.159Z,99.90
2018-08-13T08:34:55.878Z,99.90
2018-08-13T08:37:24.453Z,99.90
2018-08-13T08:39:54.604Z,99.90
2018-08-13T08:42:23.684Z,99.90
2018-08-13T08:44:51.857Z,99.90
2018-08-13T08:47:20.008Z,99.90
2018-08-13T08:49:48.207Z,99.90
2018-08-13T08:52:18.112Z,99.90
2018-08-13T08:54:46.360Z,99.90
2018-08-13T08:57:16.933Z,99.90
2018-08-13T08:59:45.984Z,99.90
2018-08-13T09:02:17.727Z,99.90
2018-08-13T09:04:45.823Z,99.90
2018-08-13T09:07:14.078Z,99.90
2018-08-13T09:09:42.224Z,99.90
2018-08-13T09:12:10.958Z,99.90
2018-08-13T09:14:39.674Z,99.90
2018-08-13T09:17:09.271Z,99.90
2018-08-13T09:19:48.721Z,99.90
2018-08-13T09:22:28.003Z,99.90
2018-08-13T09:25:07.337Z,99.90
2018-08-13T09:27:47.284Z,99.90
2018-08-13T09:30:26.560Z,99.90
2018-08-13T09:33:05.765Z,99.90
2018-08-13T09:35:35.701Z,99.90
2018-08-13T09:38:03.938Z,99.90
2018-08-13T09:40:33.217Z,99.90
2018-08-13T09:43:01.683Z,99.90
2018-08-13T09:45:29.779Z,99.90
2018-08-13T09:47:58.757Z,99.90
2018-08-13T09:50:29.629Z,99.90
2018-08-13T09:52:58.833Z,99.90
2018-08-13T09:55:30.424Z,99.90
2018-08-13T09:58:00.277Z,99.90
2018-08-13T10:00:33.756Z,99.90
2018-08-13T10:03:02.362Z,99.90
2018-08-13T10:05:33.619Z,99.90
2018-08-13T10:08:02.641Z,99.90
2018-08-13T10:10:31.504Z,99.90
2018-08-13T10:12:59.990Z,99.90
2018-08-13T10:15:29.062Z,99.90
2018-08-13T10:17:59.031Z,99.90
2018-08-13T10:20:27.219Z,99.90
2018-08-13T10:22:58.486Z,99.90
2018-08-13T10:25:27.761Z,99.90
2018-08-13T10:27:55.909Z,99.90
2018-08-13T10:30:25.700Z,99.90
2018-08-13T10:32:54.344Z,99.90
2018-08-13T10:35:23.059Z,99.90
2018-08-13T10:37:51.318Z,99.90
2018-08-13T10:40:20.428Z,99.90
2018-08-13T10:42:48.769Z,99.90
2018-08-13T10:45:17.457Z,99.90
2018-08-13T10:47:45.703Z,99.90
2018-08-13T10:50:14.705Z,99.90
2018-08-13T10:52:43.072Z,99.90
2018-08-13T10:55:13.324Z,99.90
2018-08-13T10:57:43.205Z,99.90
2018-08-13T11:00:15.685Z,99.90
2018-08-13T11:02:44.569Z,99.90
2018-08-13T11:05:14.703Z,99.90
2018-08-13T11:07:43.668Z,99.90
2018-08-13T11:10:14.169Z,99.90
2018-08-13T11:12:42.298Z,99.90
2018-08-13T11:15:17.878Z,99.90
2018-08-13T11:17:48.866Z,99.90
2018-08-13T11:20:17.173Z,99.90
2018-08-13T11:22:48.144Z,99.90
2018-08-13T11:25:16.543Z,99.90
2018-08-13T11:27:46.051Z,99.90
2018-08-13T11:30:16.935Z,99.90
2018-08-13T11:32:45.314Z,99.90
2018-08-13T11:35:14.385Z,99.90
2018-08-13T11:37:43.179Z,99.90
2018-08-13T11:40:14.987Z,99.90
2018-08-13T11:42:43.786Z,99.90
2018-08-13T11:45:12.201Z,99.90
2018-08-13T11:47:41.252Z,99.90
2018-08-13T11:50:14.524Z,99.90
2018-08-13T11:52:44.256Z,99.90
2018-08-13T11:55:18.214Z,99.90
2018-08-13T11:57:48.990Z,99.90
2018-08-13T12:00:17.848Z,99.90
2018-08-13T12:02:46.941Z,99.90
2018-08-13T12:05:16.704Z,99.90
2018-08-13T12:07:46.665Z,99.90
2018-08-13T12:10:15.538Z,99.90
2018-08-13T12:12:45.043Z,99.90
2018-08-13T12:15:14.401Z,99.90
2018-08-13T12:17:42.993Z,99.90
2018-08-13T12:20:14.873Z,99.90
2018-08-13T12:22:44.254Z,99.90
2018-08-13T12:25:16.856Z,99.90
2018-08-13T12:27:48.313Z,99.90
2018-08-13T12:30:18.103Z,99.90
2018-08-13T12:32:47.798Z,99.90
2018-08-13T12:35:17.725Z,99.90
2018-08-13T12:37:47.193Z,99.90
2018-08-13T12:40:15.480Z,99.90
2018-08-13T12:42:44.312Z,99.90
2018-08-13T12:45:13.842Z,99.90
2018-08-13T12:47:42.042Z,99.90
2018-08-13T12:50:28.879Z,99.90
2018-08-13T12:55:40.374Z,99.90
2018-08-13T12:58:09.609Z,99.90
2018-08-13T13:00:38.897Z,99.90
2018-08-13T13:03:09.732Z,99.90
2018-08-13T13:05:44.491Z,99.90
2018-08-13T13:08:13.462Z,99.90
2018-08-13T13:10:42.757Z,99.90
2018-08-13T13:13:12.725Z,99.90
2018-08-13T13:15:40.724Z,99.90
2018-08-13T13:18:11.222Z,99.90
2018-08-13T13:20:40.399Z,99.90
2018-08-13T13:23:10.732Z,99.90
2018-08-13T13:25:40.408Z,99.90
2018-08-13T13:28:11.016Z,99.90
2018-08-13T13:30:39.162Z,99.90
2018-08-13T13:33:08.105Z,99.90
2018-08-13T13:35:36.820Z,99.90
2018-08-13T13:38:06.384Z,99.90
2018-08-13T13:40:34.607Z,99.90
2018-08-13T13:43:04.728Z,99.90
2018-08-13T13:45:33.600Z,99.90
2018-08-13T13:48:02.663Z,99.90
2018-08-13T13:50:30.943Z,99.90
2018-08-13T13:53:01.090Z,99.90
2018-08-13T13:55:29.742Z,99.90
2018-08-13T13:57:58.404Z,99.90
2018-08-13T14:00:26.752Z,99.90
2018-08-13T14:02:56.376Z,99.90
2018-08-13T14:05:25.461Z,99.90
2018-08-13T14:07:55.653Z,99.90
2018-08-13T14:10:25.263Z,99.90
2018-08-13T14:12:53.713Z,99.90
2018-08-13T14:15:25.403Z,99.90
2018-08-13T14:17:57.568Z,99.90
2018-08-13T14:20:25.822Z,99.90
2018-08-13T14:22:58.092Z,99.90
2018-08-13T14:25:26.562Z,99.90
2018-08-13T14:27:56.251Z,99.90
2018-08-13T14:30:26.501Z,99.90
2018-08-13T14:32:56.008Z,99.90
2018-08-13T14:35:25.651Z,99.90
2018-08-13T14:37:54.087Z,99.90
2018-08-13T14:40:28.618Z,99.90
2018-08-13T14:42:57.237Z,99.90
2018-08-13T14:45:25.493Z,99.90
2018-08-13T14:47:58.481Z,99.90
2018-08-13T14:50:27.139Z,99.90
2018-08-13T14:52:59.454Z,99.90
2018-08-13T14:55:31.782Z,99.90
2018-08-13T14:58:01.102Z,99.90
2018-08-13T15:00:35.659Z,99.90
2018-08-13T15:03:10.719Z,99.90
2018-08-13T15:05:40.597Z,99.90
2018-08-13T15:08:09.832Z,99.90
2018-08-13T15:10:38.391Z,99.90
2018-08-13T15:13:09.588Z,99.90
2018-08-13T15:15:38.976Z,99.90
2018-08-13T15:18:07.243Z,99.90
2018-08-13T15:20:38.911Z,99.90
2018-08-13T15:23:08.230Z,99.90
2018-08-13T15:25:44.955Z,99.90
2018-08-13T15:28:13.694Z,99.90
2018-08-13T15:30:42.080Z,99.90
2018-08-13T15:33:11.992Z,99.90
2018-08-13T15:35:41.260Z,99.90
2018-08-13T15:38:10.561Z,99.90
2018-08-13T15:40:39.379Z,99.90
2018-08-13T15:43:09.926Z,99.90
2018-08-13T15:45:44.328Z,99.90
2018-08-13T15:48:12.556Z,99.90
2018-08-13T15:50:41.344Z,99.90
2018-08-13T15:53:15.520Z,99.90
2018-08-13T15:55:43.709Z,99.90
2018-08-13T15:58:11.940Z,99.90
2018-08-13T16:00:43.511Z,99.90
2018-08-13T16:03:15.520Z,99.90
2018-08-13T16:05:45.612Z,99.90
2018-08-13T16:08:13.744Z,99.90
2018-08-13T16:10:43.236Z,99.90
2018-08-13T16:13:11.295Z,99.90
2018-08-13T16:15:41.441Z,99.90
2018-08-13T16:18:09.787Z,99.90
2018-08-13T16:20:38.232Z,99.90
2018-08-13T16:23:06.539Z,99.90
2018-08-13T16:25:36.710Z,99.90
2018-08-13T16:28:05.209Z,99.90
2018-08-13T16:30:33.973Z,99.90
2018-08-13T16:33:03.896Z,99.90
2018-08-13T16:35:32.614Z,99.90
2018-08-13T16:38:01.494Z,99.90
2018-08-13T16:40:31.076Z,99.90
2018-08-13T16:42:59.450Z,99.90
2018-08-13T16:45:29.348Z,99.90
2018-08-13T16:47:57.623Z,99.90
2018-08-13T16:50:30.125Z,99.90
2018-08-13T16:52:59.390Z,99.90
2018-08-13T16:55:28.530Z,99.90
2018-08-13T16:57:57.064Z,99.90
2018-08-13T17:00:29.446Z,99.90
2018-08-13T17:03:00.914Z,99.90
2018-08-13T17:05:31.553Z,99.90
2018-08-13T17:08:00.472Z,99.90
2018-08-13T17:10:29.272Z,99.90
2018-08-13T17:12:58.818Z,99.90
2018-08-13T17:15:29.627Z,99.90
2018-08-13T17:17:59.061Z,99.90
2018-08-13T17:20:33.218Z,99.90
2018-08-13T17:23:02.052Z,99.90
2018-08-13T17:25:30.226Z,99.90
2018-08-13T17:27:58.464Z,99.90
2018-08-13T17:30:27.091Z,99.90
2018-08-13T17:32:58.768Z,99.90
2018-08-13T17:35:29.273Z,99.90
2018-08-13T17:37:58.473Z,99.90
2018-08-13T17:40:28.122Z,99.90
2018-08-13T17:42:58.171Z,99.90
2018-08-13T17:45:27.814Z,99.90
2018-08-13T17:48:00.117Z,99.90
2018-08-13T17:50:28.489Z,99.90
2018-08-13T17:52:57.723Z,99.90
2018-08-13T17:55:26.085Z,99.90
2018-08-13T17:57:55.117Z,99.90
2018-08-13T18:00:28.334Z,99.90
2018-08-13T18:02:57.828Z,99.90
2018-08-13T18:05:26.808Z,99.90
2018-08-13T18:07:55.705Z,99.90
2018-08-13T18:10:32.783Z,99.90
2018-08-13T18:13:03.000Z,99.90
2018-08-13T18:15:33.245Z,99.90
2018-08-13T18:18:04.079Z,99.90
2018-08-13T18:20:33.645Z,99.90
2018-08-13T18:23:03.718Z,99.90
2018-08-13T18:25:33.198Z,99.90
2018-08-13T18:30:39.192Z,99.90
2018-08-13T18:33:07.451Z,99.90
2018-08-13T18:35:35.748Z,99.90
2018-08-13T18:38:05.079Z,99.90
2018-08-13T18:40:36.497Z,99.90
2018-08-13T18:43:10.647Z,99.90
2018-08-13T18:45:39.892Z,99.90
2018-08-13T18:48:10.965Z,99.90
2018-08-13T18:51:42.524Z,99.90
2018-08-13T18:54:14.662Z,99.90
2018-08-13T18:56:45.680Z,99.90
2018-08-13T18:59:14.878Z,99.90
2018-08-13T19:01:43.005Z,99.90
2018-08-13T19:04:12.768Z,99.90
2018-08-13T19:06:42.029Z,99.90
2018-08-13T19:09:11.517Z,99.90
2018-08-13T19:11:40.962Z,99.90
2018-08-13T19:14:09.709Z,99.90
2018-08-13T19:16:38.112Z,99.90
2018-08-13T19:19:07.841Z,99.90
2018-08-13T19:21:36.677Z,99.90
2018-08-13T19:24:08.766Z,99.90
2018-08-13T19:26:37.307Z,99.90
2018-08-13T19:29:08.080Z,99.90
2018-08-13T19:31:42.849Z,99.90
2018-08-13T19:34:14.233Z,99.90
2018-08-13T19:36:43.554Z,99.90
2018-08-13T19:39:14.133Z,99.90
2018-08-13T19:41:44.340Z,99.90
2018-08-13T19:44:14.232Z,99.90
2018-08-13T19:46:45.363Z,99.90
2018-08-13T19:49:13.516Z,99.90
2018-08-13T19:51:41.616Z,99.90
2018-08-13T19:54:11.348Z,99.90
2018-08-13T19:56:55.621Z,99.90
2018-08-13T19:59:24.384Z,99.90
2018-08-13T20:01:54.557Z,99.90
2018-08-13T20:04:22.894Z,99.90
2018-08-13T20:06:52.982Z,99.90
2018-08-13T20:09:22.297Z,99.90
2018-08-13T20:11:55.114Z,99.90
2018-08-13T20:14:26.104Z,99.90
2018-08-13T20:16:55.016Z,99.90
2018-08-13T20:19:25.884Z,99.90
2018-08-13T20:21:55.593Z,99.90
2018-08-13T20:24:30.592Z,99.90
2018-08-13T20:27:04.454Z,99.90
2018-08-13T20:29:38.732Z,99.90
2018-08-13T20:32:08.377Z,99.90
2018-08-13T20:34:40.729Z,99.90
2018-08-13T20:37:13.385Z,99.90
2018-08-13T20:39:43.975Z,99.90
2018-08-13T20:42:16.045Z,99.90
2018-08-13T20:44:47.835Z,99.90
2018-08-13T20:47:18.632Z,99.90
2018-08-13T20:49:49.312Z,99.90
2018-08-13T20:52:20.630Z,99.90
2018-08-13T20:54:49.429Z,99.90
2018-08-13T20:57:27.437Z,99.90
2018-08-13T20:59:57.207Z,99.90
2018-08-13T21:02:30.506Z,99.90
2018-08-13T21:05:00.198Z,99.90
2018-08-13T21:07:33.381Z,99.90
2018-08-13T21:10:03.136Z,99.90
2018-08-13T21:12:32.317Z,99.90
2018-08-13T21:15:03.566Z,99.90
2018-08-13T21:17:32.760Z,99.90
2018-08-13T21:20:04.556Z,99.90
2018-08-13T21:22:35.077Z,99.90
2018-08-13T21:25:03.758Z,99.90
2018-08-13T21:30:40.456Z,99.90
2018-08-13T21:33:11.951Z,99.90
2018-08-13T21:35:42.623Z,99.90
2018-08-13T21:38:12.459Z,99.90
2018-08-13T21:40:45.131Z,99.90
2018-08-13T21:43:15.622Z,99.90
2018-08-13T21:45:46.927Z,99.90
2018-08-13T21:48:17.979Z,99.90
2018-08-13T21:50:46.306Z,99.90
2018-08-13T21:53:16.365Z,99.90
2018-08-13T21:55:50.557Z,99.90
2018-08-13T21:58:20.666Z,99.90
2018-08-13T22:00:57.762Z,99.90
2018-08-13T22:03:27.062Z,99.90
2018-08-13T22:05:57.377Z,99.90
2018-08-13T22:08:25.931Z,99.90
2018-08-13T22:11:02.499Z,99.90
2018-08-13T22:13:33.388Z,99.90
2018-08-13T22:16:02.140Z,99.90
2018-08-13T22:18:30.399Z,99.90
2018-08-13T22:20:59.228Z,99.90
2018-08-13T22:23:27.340Z,99.90
2018-08-13T22:25:55.597Z,99.90
2018-08-13T22:28:24.800Z,99.90
2018-08-13T22:30:53.428Z,99.90
2018-08-13T22:33:21.811Z,99.90
2018-08-13T22:35:50.121Z,99.90
2018-08-13T22:38:20.410Z,99.90
2018-08-13T22:40:49.286Z,99.90
2018-08-13T22:43:17.622Z,99.90
2018-08-13T22:45:46.609Z,99.90
2018-08-13T22:48:15.665Z,99.90
2018-08-13T22:50:44.580Z,99.90
2018-08-13T22:53:13.893Z,99.90
2018-08-13T22:55:42.217Z,99.90
2018-08-13T22:58:10.438Z,99.90
2018-08-13T23:00:39.459Z,99.90
2018-08-13T23:03:08.579Z,99.90
2018-08-13T23:05:37.791Z,99.90
2018-08-13T23:08:08.505Z,99.90
2018-08-13T23:10:36.741Z,99.90
2018-08-13T23:13:06.920Z,99.90
2018-08-13T23:15:35.365Z,99.90
2018-08-13T23:18:06.535Z,99.90
2018-08-13T23:20:34.935Z,99.90
2018-08-13T23:23:06.092Z,99.90
2018-08-13T23:25:36.071Z,99.90
2018-08-13T23:28:07.048Z,99.90
2018-08-13T23:30:36.742Z,99.90
2018-08-13T23:33:06.781Z,99.90
2018-08-13T23:35:37.068Z,99.90
2018-08-13T23:38:06.350Z,99.90
2018-08-13T23:40:36.108Z,99.90
2018-08-13T23:43:04.897Z,99.90
2018-08-13T23:45:33.114Z,99.90
2018-08-13T23:48:01.334Z,99.90
2018-08-13T23:50:29.681Z,99.90
2018-08-13T23:53:00.367Z,99.90
2018-08-13T23:55:37.040Z,99.90
2018-08-13T23:58:08.620Z,99.90
